createdAt,value
2023-04-10T00:01:46.328Z,5.30
2023-04-10T00:04:12.882Z,5.26
2023-04-10T00:06:40.937Z,5.21
2023-04-10T00:09:08.138Z,5.18
2023-04-10T00:11:34.562Z,5.14
2023-04-10T00:14:01.114Z,5.21
2023-04-10T00:16:27.588Z,5.09
2023-04-10T00:18:54.041Z,5.01
2023-04-10T00:21:20.750Z,5.00
2023-04-10T00:23:47.149Z,4.95
2023-04-10T00:26:13.551Z,4.93
2023-04-10T00:28:41.540Z,4.91
2023-04-10T00:31:07.941Z,4.91
2023-04-10T00:33:34.340Z,4.91
2023-04-10T00:36:01.191Z,4.91
2023-04-10T00:38:28.714Z,4.91
2023-04-10T00:40:55.277Z,4.83
2023-04-10T00:43:22.050Z,4.83
2023-04-10T00:45:49.972Z,4.74
2023-04-10T00:48:17.793Z,4.81
2023-04-10T00:50:46.223Z,4.81
2023-04-10T00:53:12.615Z,4.85
2023-04-10T00:55:39.293Z,4.77
2023-04-10T00:58:05.774Z,4.76
2023-04-10T01:00:32.210Z,4.76
2023-04-10T01:03:01.321Z,4.75
2023-04-10T01:05:35.257Z,4.73
2023-04-10T01:08:36.518Z,4.65
2023-04-10T01:11:13.469Z,4.68
2023-04-10T01:13:49.898Z,4.69
2023-04-10T01:16:23.231Z,4.67
2023-04-10T01:19:18.813Z,4.63
2023-04-10T01:21:45.858Z,4.62
2023-04-10T01:24:31.506Z,4.57
2023-04-10T01:27:56.612Z,4.54
2023-04-10T01:30:23.228Z,4.53
2023-04-10T01:32:53.694Z,4.41
2023-04-10T01:35:21.368Z,4.36
2023-04-10T01:37:50.595Z,4.37
2023-04-10T01:40:20.984Z,4.38
2023-04-10T01:42:56.715Z,4.40
2023-04-10T01:45:29.891Z,4.36
2023-04-10T01:47:56.642Z,4.28
2023-04-10T01:50:24.472Z,4.26
2023-04-10T01:52:54.646Z,4.27
2023-04-10T01:55:27.511Z,4.27
2023-04-10T01:58:05.872Z,4.24
2023-04-10T02:00:42.980Z,4.14
2023-04-10T02:03:11.298Z,4.13
2023-04-10T02:06:02.413Z,4.11
2023-04-10T02:08:37.548Z,4.10
2023-04-10T02:11:17.579Z,4.06
2023-04-10T02:13:44.211Z,3.98
2023-04-10T02:16:14.340Z,3.98
2023-04-10T02:18:41.188Z,3.99
2023-04-10T02:21:08.257Z,4.04
2023-04-10T02:23:35.927Z,3.91
2023-04-10T02:26:09.188Z,3.91
2023-04-10T02:28:39.302Z,3.89
2023-04-10T02:31:07.508Z,3.94
2023-04-10T02:33:33.945Z,3.92
2023-04-10T02:36:01.341Z,3.91
2023-04-10T02:38:28.619Z,3.93
2023-04-10T02:40:55.326Z,3.92
2023-04-10T02:43:21.824Z,3.93
2023-04-10T02:45:48.242Z,3.89
2023-04-10T02:48:20.895Z,3.90
2023-04-10T02:50:57.681Z,3.82
2023-04-10T02:53:25.959Z,3.88
2023-04-10T02:55:56.280Z,3.82
2023-04-10T02:58:22.741Z,3.69
2023-04-10T03:00:52.157Z,3.67
2023-04-10T03:03:25.575Z,3.76
2023-04-10T03:05:54.903Z,3.71
2023-04-10T03:08:31.071Z,3.60
2023-04-10T03:10:57.460Z,3.54
2023-04-10T03:13:23.886Z,3.54
2023-04-10T03:15:50.378Z,3.48
2023-04-10T03:18:16.970Z,3.60
2023-04-10T03:20:45.417Z,3.42
2023-04-10T03:23:11.977Z,3.38
2023-04-10T03:25:38.533Z,3.45
2023-04-10T03:28:06.940Z,3.42
2023-04-10T03:30:35.272Z,3.37
2023-04-10T03:33:02.572Z,3.35
2023-04-10T03:35:29.444Z,3.27
2023-04-10T03:37:55.843Z,3.34
2023-04-10T03:40:22.524Z,3.42
2023-04-10T03:42:48.978Z,3.40
2023-04-10T03:45:15.566Z,3.24
2023-04-10T03:47:42.018Z,3.18
2023-04-10T03:50:10.547Z,3.15
2023-04-10T03:52:45.363Z,3.08
2023-04-10T03:55:19.061Z,3.05
2023-04-10T03:57:47.182Z,3.02
2023-04-10T04:00:15.675Z,3.00
2023-04-10T04:02:50.863Z,3.13
2023-04-10T04:05:36.423Z,3.10
2023-04-10T04:08:23.771Z,3.09
2023-04-10T04:11:08.719Z,3.07
2023-04-10T04:13:44.003Z,3.09
2023-04-10T04:16:24.041Z,3.09
2023-04-10T04:18:56.419Z,3.09
2023-04-10T04:21:31.451Z,3.09
2023-04-10T04:24:08.991Z,3.12
2023-04-10T04:26:53.862Z,3.14
2023-04-10T04:29:34.672Z,3.12
2023-04-10T04:32:30.544Z,3.15
2023-04-10T04:35:14.248Z,3.15
2023-04-10T04:38:06.549Z,3.17
2023-04-10T04:40:50.736Z,3.15
2023-04-10T04:43:41.141Z,3.17
2023-04-10T04:46:23.583Z,3.18
2023-04-10T04:48:58.859Z,3.18
2023-04-10T04:51:33.158Z,3.19
2023-04-10T04:54:05.057Z,3.24
2023-04-10T04:56:40.579Z,3.22
2023-04-10T04:59:16.098Z,3.28
2023-04-10T05:01:55.886Z,3.30
2023-04-10T05:04:57.955Z,3.43
2023-04-10T05:07:44.832Z,3.43
2023-04-10T05:10:38.949Z,3.47
2023-04-10T05:13:30.488Z,3.43
2023-04-10T05:16:15.698Z,3.46
2023-04-10T05:18:56.109Z,3.49
2023-04-10T05:21:51.629Z,3.31
2023-04-10T05:24:41.020Z,3.44
2023-04-10T05:27:13.705Z,3.63
2023-04-10T05:29:58.639Z,3.78
2023-04-10T05:32:37.004Z,3.79
2023-04-10T05:35:24.935Z,3.83
2023-04-10T05:38:11.689Z,4.00
2023-04-10T05:40:45.786Z,4.02
2023-04-10T05:43:32.225Z,4.12
2023-04-10T05:46:13.372Z,4.17
2023-04-10T05:48:56.634Z,4.46
2023-04-10T05:51:37.005Z,4.66
2023-04-10T05:54:18.019Z,4.96
2023-04-10T05:56:53.578Z,5.32
2023-04-10T05:59:38.784Z,5.72
2023-04-10T06:02:21.799Z,6.02
2023-04-10T06:04:48.960Z,6.28
2023-04-10T06:07:16.201Z,6.44
2023-04-10T06:09:42.627Z,6.68
2023-04-10T06:12:09.977Z,6.78
2023-04-10T06:14:38.545Z,6.85
2023-04-10T06:17:05.699Z,6.92
2023-04-10T06:19:32.275Z,7.04
2023-04-10T06:21:58.672Z,7.06
2023-04-10T06:24:25.337Z,7.10
2023-04-10T06:26:51.827Z,7.21
2023-04-10T06:29:18.254Z,7.23
2023-04-10T06:31:44.773Z,7.23
2023-04-10T06:34:11.881Z,7.27
2023-04-10T06:36:46.954Z,7.30
2023-04-10T06:39:13.653Z,7.48
2023-04-10T06:41:40.062Z,7.60
2023-04-10T06:44:16.046Z,7.79
2023-04-10T06:46:42.491Z,7.87
2023-04-10T06:49:08.926Z,8.03
2023-04-10T06:51:35.316Z,8.14
2023-04-10T06:54:01.720Z,8.24
2023-04-10T06:56:28.584Z,8.38
2023-04-10T06:58:55.189Z,8.66
2023-04-10T07:01:21.917Z,8.86
2023-04-10T07:03:48.447Z,9.01
2023-04-10T07:06:14.873Z,9.27
2023-04-10T07:08:41.280Z,9.48
2023-04-10T07:11:07.725Z,9.75
2023-04-10T07:13:35.608Z,9.97
2023-04-10T07:16:02.145Z,10.23
2023-04-10T07:18:28.610Z,10.38
2023-04-10T07:20:55.033Z,10.50
2023-04-10T07:23:22.525Z,10.85
2023-04-10T07:25:48.961Z,11.01
2023-04-10T07:28:15.375Z,11.23
2023-04-10T07:30:42.046Z,11.39
2023-04-10T07:33:08.635Z,11.52
2023-04-10T07:35:35.242Z,11.65
2023-04-10T07:38:01.782Z,11.70
2023-04-10T07:40:28.278Z,11.86
2023-04-10T07:42:54.691Z,11.90
2023-04-10T07:45:21.145Z,12.08
2023-04-10T07:47:47.690Z,12.31
2023-04-10T07:50:14.153Z,12.41
2023-04-10T07:52:40.556Z,12.62
2023-04-10T07:55:07.040Z,12.73
2023-04-10T07:57:33.455Z,12.83
2023-04-10T07:59:59.858Z,12.81
2023-04-10T08:02:26.512Z,12.89
2023-04-10T08:04:53.154Z,13.06
2023-04-10T08:07:21.618Z,13.25
2023-04-10T08:09:48.141Z,13.23
2023-04-10T08:12:14.523Z,13.35
2023-04-10T08:14:40.906Z,13.46
2023-04-10T08:17:14.312Z,13.45
2023-04-10T08:19:42.053Z,13.67
2023-04-10T08:22:08.661Z,13.77
2023-04-10T08:24:35.137Z,13.88
2023-04-10T08:27:01.654Z,14.10
2023-04-10T08:29:28.050Z,14.24
2023-04-10T08:31:55.584Z,14.37
2023-04-10T08:34:24.294Z,14.35
2023-04-10T08:36:50.690Z,14.54
2023-04-10T08:39:17.089Z,14.62
2023-04-10T08:41:43.769Z,14.76
2023-04-10T08:44:10.654Z,14.74
2023-04-10T08:46:43.253Z,14.84
2023-04-10T08:49:15.431Z,14.96
2023-04-10T08:51:47.948Z,14.90
2023-04-10T08:54:27.496Z,14.85
2023-04-10T08:56:55.952Z,15.09
2023-04-10T08:59:22.747Z,14.94
2023-04-10T09:01:49.307Z,15.23
2023-04-10T09:04:17.856Z,15.52
2023-04-10T09:06:44.421Z,15.33
2023-04-10T09:09:10.973Z,15.63
2023-04-10T09:11:56.002Z,15.80
2023-04-10T09:14:32.563Z,15.80
2023-04-10T09:17:12.938Z,15.77
2023-04-10T09:19:39.494Z,15.68
2023-04-10T09:22:06.056Z,15.74
2023-04-10T09:24:37.413Z,15.65
2023-04-10T09:27:04.349Z,15.68
2023-04-10T09:29:43.193Z,15.76
2023-04-10T09:32:10.132Z,15.91
2023-04-10T09:34:52.358Z,16.25
2023-04-10T09:37:20.756Z,16.15
2023-04-10T09:39:47.163Z,16.01
2023-04-10T09:42:14.791Z,16.38
2023-04-10T09:44:42.221Z,16.71
2023-04-10T09:47:14.745Z,16.76
2023-04-10T09:49:52.524Z,16.55
2023-04-10T09:52:20.450Z,16.55
2023-04-10T09:54:46.915Z,16.85
2023-04-10T09:57:21.427Z,16.75
2023-04-10T09:59:56.612Z,16.95
2023-04-10T10:02:25.756Z,16.92
2023-04-10T10:04:52.945Z,16.91
2023-04-10T10:07:21.145Z,17.04
2023-04-10T10:09:49.156Z,17.28
2023-04-10T10:12:37.946Z,17.14
2023-04-10T10:15:16.423Z,17.21
2023-04-10T10:17:49.383Z,17.42
2023-04-10T10:20:18.239Z,17.03
2023-04-10T10:22:46.408Z,17.38
2023-04-10T10:25:13.152Z,17.17
2023-04-10T10:27:41.554Z,16.99
2023-04-10T10:30:25.408Z,17.31
2023-04-10T10:32:56.076Z,17.45
2023-04-10T10:35:25.157Z,17.69
2023-04-10T10:37:52.938Z,17.38
2023-04-10T10:40:37.625Z,17.17
2023-04-10T10:43:14.808Z,17.25
2023-04-10T10:45:52.364Z,17.22
2023-04-10T10:48:18.857Z,17.58
2023-04-10T10:50:57.854Z,17.76
2023-04-10T10:53:36.388Z,17.92
2023-04-10T10:56:22.487Z,17.68
2023-04-10T10:58:50.777Z,17.65
2023-04-10T11:01:18.208Z,17.87
2023-04-10T11:03:45.482Z,17.84
2023-04-10T11:06:15.386Z,18.07
2023-04-10T11:08:46.567Z,18.17
2023-04-10T11:11:20.056Z,18.46
2023-04-10T11:13:52.403Z,18.18
2023-04-10T11:16:20.384Z,18.12
2023-04-10T11:18:51.208Z,17.90
2023-04-10T11:21:23.447Z,17.77
2023-04-10T11:23:49.788Z,17.75
2023-04-10T11:26:43.723Z,18.01
2023-04-10T11:29:16.124Z,18.20
2023-04-10T11:31:44.545Z,18.45
2023-04-10T11:34:11.805Z,18.11
2023-04-10T11:36:40.718Z,18.47
2023-04-10T11:39:15.956Z,18.60
2023-04-10T11:41:44.269Z,18.93
2023-04-10T11:44:12.873Z,18.56
2023-04-10T11:46:41.307Z,18.46
2023-04-10T11:49:09.799Z,18.67
2023-04-10T11:51:37.741Z,18.50
2023-04-10T11:54:05.450Z,18.31
2023-04-10T11:56:31.847Z,18.45
2023-04-10T11:58:58.296Z,18.78
2023-04-10T12:01:24.954Z,18.58
2023-04-10T12:03:51.693Z,18.44
2023-04-10T12:06:19.598Z,18.57
2023-04-10T12:08:49.287Z,18.17
2023-04-10T12:11:18.728Z,17.78
2023-04-10T12:13:45.220Z,17.84
2023-04-10T12:16:12.426Z,18.21
2023-04-10T12:18:39.662Z,18.58
2023-04-10T12:21:08.538Z,18.60
2023-04-10T12:23:38.337Z,19.11
2023-04-10T12:26:16.558Z,18.39
2023-04-10T12:28:52.503Z,17.98
2023-04-10T12:31:28.093Z,18.31
2023-04-10T12:33:57.855Z,18.67
2023-04-10T12:36:29.439Z,18.51
2023-04-10T12:39:00.366Z,18.44
2023-04-10T12:41:28.379Z,18.41
2023-04-10T12:44:10.989Z,18.91
2023-04-10T12:46:38.532Z,19.00
2023-04-10T12:49:13.143Z,19.05
2023-04-10T12:51:49.278Z,18.74
2023-04-10T12:54:35.349Z,18.58
2023-04-10T12:57:03.843Z,18.32
2023-04-10T12:59:31.258Z,18.55
2023-04-10T13:02:13.538Z,18.65
2023-04-10T13:04:42.613Z,18.45
2023-04-10T13:07:09.095Z,18.36
2023-04-10T13:09:35.491Z,19.05
2023-04-10T13:12:03.860Z,19.33
2023-04-10T13:14:30.481Z,19.08
2023-04-10T13:16:59.937Z,18.66
2023-04-10T13:19:27.048Z,18.73
2023-04-10T13:21:56.339Z,18.74
2023-04-10T13:24:22.734Z,18.51
2023-04-10T13:26:49.155Z,18.56
2023-04-10T13:29:15.670Z,18.61
2023-04-10T13:31:42.129Z,18.31
2023-04-10T13:34:21.168Z,18.36
2023-04-10T13:36:48.557Z,18.02
2023-04-10T13:39:14.960Z,18.09
2023-04-10T13:41:41.364Z,18.22
2023-04-10T13:44:07.754Z,18.46
2023-04-10T13:46:34.218Z,18.64
2023-04-10T13:49:00.782Z,18.54
2023-04-10T13:51:27.849Z,18.14
2023-04-10T13:53:54.310Z,18.16
2023-04-10T13:56:21.068Z,18.05
2023-04-10T13:58:49.143Z,17.90
2023-04-10T14:01:15.653Z,18.13
2023-04-10T14:03:42.270Z,18.45
2023-04-10T14:06:11.736Z,18.28
2023-04-10T14:08:38.196Z,18.16
2023-04-10T14:11:04.663Z,18.32
2023-04-10T14:13:31.076Z,18.67
2023-04-10T14:15:57.532Z,18.75
2023-04-10T14:18:23.978Z,19.16
2023-04-10T14:20:50.375Z,19.22
2023-04-10T14:23:19.608Z,18.85
2023-04-10T14:25:46.768Z,19.16
2023-04-10T14:28:19.454Z,19.12
2023-04-10T14:30:48.277Z,19.10
2023-04-10T14:33:15.181Z,19.61
2023-04-10T14:35:41.699Z,19.28
2023-04-10T14:38:08.166Z,19.29
2023-04-10T14:40:34.654Z,19.14
2023-04-10T14:43:01.089Z,18.90
2023-04-10T14:45:27.818Z,18.88
2023-04-10T14:47:54.489Z,18.55
2023-04-10T14:50:21.034Z,18.55
2023-04-10T14:52:47.461Z,18.45
2023-04-10T14:55:13.861Z,18.67
2023-04-10T14:57:40.422Z,18.85
2023-04-10T15:00:07.413Z,18.63
2023-04-10T15:02:33.939Z,18.68
2023-04-10T15:05:00.413Z,18.44
2023-04-10T15:07:28.309Z,18.30
2023-04-10T15:09:58.530Z,18.17
2023-04-10T15:12:25.244Z,18.28
2023-04-10T15:14:52.058Z,18.39
2023-04-10T15:17:22.277Z,18.50
2023-04-10T15:19:48.987Z,18.20
2023-04-10T15:22:15.851Z,18.15
2023-04-10T15:24:50.009Z,18.19
2023-04-10T15:27:19.107Z,18.01
2023-04-10T15:29:45.516Z,17.94
2023-04-10T15:32:11.918Z,18.30
2023-04-10T15:34:38.361Z,18.21
2023-04-10T15:37:04.774Z,18.30
2023-04-10T15:39:31.170Z,18.44
2023-04-10T15:42:00.048Z,18.40
2023-04-10T15:44:26.770Z,18.14
2023-04-10T15:49:29.727Z,17.91
2023-04-10T15:52:00.730Z,18.04
2023-04-10T15:54:27.132Z,17.90
2023-04-10T15:56:53.529Z,18.06
2023-04-10T15:59:19.977Z,18.17
2023-04-10T16:01:46.473Z,18.07
2023-04-10T16:04:13.075Z,18.20
2023-04-10T16:06:39.607Z,18.21
2023-04-10T16:09:18.361Z,18.20
2023-04-10T16:11:51.000Z,18.00
2023-04-10T16:14:18.915Z,18.00
2023-04-10T16:16:45.667Z,17.94
2023-04-10T16:19:12.102Z,17.92
2023-04-10T16:21:38.508Z,17.89
2023-04-10T16:24:05.214Z,17.65
2023-04-10T16:26:31.617Z,17.83
2023-04-10T16:28:58.050Z,17.71
2023-04-10T16:31:24.711Z,17.70
2023-04-10T16:33:51.163Z,17.48
2023-04-10T16:36:17.568Z,17.31
2023-04-10T16:38:44.538Z,17.30
2023-04-10T16:41:12.354Z,17.27
2023-04-10T16:43:38.987Z,17.24
2023-04-10T16:46:05.812Z,17.21
2023-04-10T16:48:51.941Z,17.22
2023-04-10T16:51:18.571Z,17.28
2023-04-10T16:53:45.075Z,17.20
2023-04-10T16:56:11.521Z,17.09
2023-04-10T16:58:38.167Z,16.86
2023-04-10T17:01:25.192Z,16.70
2023-04-10T17:03:52.034Z,16.76
2023-04-10T17:06:18.468Z,16.75
2023-04-10T17:08:45.552Z,16.77
2023-04-10T17:11:15.878Z,16.63
2023-04-10T17:13:42.366Z,16.67
2023-04-10T17:16:09.539Z,16.62
2023-04-10T17:18:36.055Z,16.43
2023-04-10T17:21:02.474Z,16.41
2023-04-10T17:23:29.447Z,16.38
2023-04-10T17:25:55.848Z,16.31
2023-04-10T17:28:22.308Z,16.34
2023-04-10T17:30:48.723Z,16.15
2023-04-10T17:33:15.326Z,16.16
2023-04-10T17:35:42.067Z,16.24
2023-04-10T17:38:08.549Z,16.26
2023-04-10T17:40:35.117Z,16.24
2023-04-10T17:43:01.599Z,16.19
2023-04-10T17:45:28.040Z,16.07
2023-04-10T17:47:54.542Z,16.05
2023-04-10T17:50:21.047Z,15.97
2023-04-10T17:52:47.447Z,16.00
2023-04-10T17:55:18.335Z,15.90
2023-04-10T17:57:47.033Z,15.82
2023-04-10T18:00:15.570Z,15.77
2023-04-10T18:02:42.975Z,15.74
2023-04-10T18:05:09.619Z,15.64
2023-04-10T18:07:37.425Z,15.59
2023-04-10T18:10:05.120Z,15.56
2023-04-10T18:12:59.277Z,15.44
2023-04-10T18:15:47.401Z,15.40
2023-04-10T18:22:06.904Z,15.17
2023-04-10T18:24:59.501Z,15.18
2023-04-10T18:28:13.959Z,15.24
2023-04-10T18:30:41.362Z,15.15
2023-04-10T18:33:10.878Z,15.12
2023-04-10T18:35:38.360Z,15.05
2023-04-10T18:38:04.805Z,14.96
2023-04-10T18:40:31.240Z,14.97
2023-04-10T18:42:59.721Z,14.91
2023-04-10T18:45:29.276Z,14.89
2023-04-10T18:47:55.770Z,14.88
2023-04-10T18:50:22.285Z,14.76
2023-04-10T18:52:48.805Z,14.69
2023-04-10T18:55:15.934Z,14.62
2023-04-10T18:57:42.365Z,14.59
2023-04-10T19:00:11.351Z,14.56
2023-04-10T19:02:37.862Z,14.55
2023-04-10T19:05:04.598Z,14.49
2023-04-10T19:07:32.284Z,14.48
2023-04-10T19:09:58.761Z,14.38
2023-04-10T19:12:25.185Z,14.37
2023-04-10T19:14:51.619Z,14.30
2023-04-10T19:17:19.596Z,14.26
2023-04-10T19:19:46.140Z,14.22
2023-04-10T19:22:13.326Z,14.24
2023-04-10T19:24:39.723Z,14.20
2023-04-10T19:27:06.380Z,14.13
2023-04-10T19:29:32.785Z,14.09
2023-04-10T19:31:59.197Z,14.09
2023-04-10T19:34:25.778Z,14.10
2023-04-10T19:36:52.174Z,14.03
2023-04-10T19:39:18.570Z,13.99
2023-04-10T19:41:44.967Z,14.00
2023-04-10T19:44:11.378Z,13.99
2023-04-10T19:46:37.863Z,14.01
2023-04-10T19:49:04.348Z,13.93
2023-04-10T19:51:32.250Z,13.90
2023-04-10T19:53:59.052Z,13.81
2023-04-10T19:56:27.648Z,13.87
2023-04-10T19:58:54.141Z,13.77
2023-04-10T20:01:26.685Z,13.70
2023-04-10T20:03:53.307Z,13.74
2023-04-10T20:06:21.406Z,13.76
2023-04-10T20:08:47.799Z,13.78
2023-04-10T20:11:14.196Z,13.75
2023-04-10T20:13:41.332Z,13.75
2023-04-10T20:16:08.098Z,13.68
2023-04-10T20:18:34.725Z,13.73
2023-04-10T20:21:01.223Z,13.74
2023-04-10T20:23:27.665Z,13.72
2023-04-10T20:25:54.098Z,13.66
2023-04-10T20:28:20.764Z,13.66
2023-04-10T20:30:47.202Z,13.63
2023-04-10T20:33:13.596Z,13.71
2023-04-10T20:35:40.082Z,13.63
2023-04-10T20:38:06.558Z,13.69
2023-04-10T20:40:33.204Z,13.65
2023-04-10T20:42:59.582Z,13.72
2023-04-10T20:45:25.992Z,13.58
2023-04-10T20:47:52.425Z,13.64
2023-04-10T20:50:18.823Z,13.59
2023-04-10T20:52:45.367Z,13.66
2023-04-10T20:55:11.875Z,13.64
2023-04-10T20:57:38.327Z,13.65
2023-04-10T21:00:05.353Z,13.59
2023-04-10T21:02:31.873Z,13.64
2023-04-10T21:04:59.572Z,13.62
2023-04-10T21:07:25.996Z,13.64
2023-04-10T21:09:52.422Z,13.62
2023-04-10T21:12:19.742Z,13.58
2023-04-10T21:14:46.203Z,13.61
2023-04-10T21:17:12.662Z,13.52
2023-04-10T21:19:39.098Z,13.57
2023-04-10T21:22:05.620Z,13.59
2023-04-10T21:24:32.065Z,13.52
2023-04-10T21:26:58.502Z,13.58
2023-04-10T21:29:24.950Z,13.61
2023-04-10T21:31:51.366Z,13.49
2023-04-10T21:34:17.808Z,13.46
2023-04-10T21:36:44.207Z,13.47
2023-04-10T21:39:10.786Z,13.33
2023-04-10T21:41:38.281Z,13.33
2023-04-10T21:44:05.695Z,13.42
2023-04-10T21:46:32.347Z,13.35
2023-04-10T21:48:58.885Z,13.29
2023-04-10T21:51:26.956Z,13.29
2023-04-10T21:53:53.510Z,13.21
2023-04-10T21:56:19.988Z,13.28
2023-04-10T21:58:46.437Z,13.23
2023-04-10T22:01:13.013Z,13.16
2023-04-10T22:03:39.645Z,13.20
2023-04-10T22:06:06.327Z,13.19
2023-04-10T22:08:32.754Z,13.17
2023-04-10T22:10:59.178Z,13.14
2023-04-10T22:13:30.798Z,13.19
2023-04-10T22:15:57.683Z,13.21
2023-04-10T22:18:24.097Z,13.10
2023-04-10T22:20:50.806Z,13.15
2023-04-10T22:23:17.325Z,13.07
2023-04-10T22:25:43.735Z,13.13
2023-04-10T22:28:10.236Z,13.20
2023-04-10T22:30:36.674Z,13.04
2023-04-10T22:33:03.169Z,13.11
2023-04-10T22:35:29.714Z,13.09
2023-04-10T22:37:56.959Z,13.11
2023-04-10T22:40:23.504Z,13.12
2023-04-10T22:42:50.635Z,13.06
2023-04-10T22:45:17.121Z,12.97
2023-04-10T22:47:43.535Z,13.04
2023-04-10T22:50:10.123Z,13.00
2023-04-10T22:52:36.540Z,12.89
2023-04-10T22:55:06.710Z,12.94
2023-04-10T22:57:33.678Z,12.92
2023-04-10T23:00:00.725Z,12.82
2023-04-10T23:02:27.558Z,12.77
2023-04-10T23:04:54.270Z,12.86
2023-04-10T23:07:20.714Z,12.82
2023-04-10T23:09:47.122Z,12.80
2023-04-10T23:12:13.551Z,12.77
2023-04-10T23:14:39.964Z,12.74
2023-04-10T23:17:06.400Z,12.79
2023-04-10T23:19:32.807Z,12.72
2023-04-10T23:21:59.200Z,12.69
2023-04-10T23:24:25.604Z,12.73
2023-04-10T23:26:52.012Z,12.71
2023-04-10T23:29:18.416Z,12.72
2023-04-10T23:31:44.862Z,12.69
2023-04-10T23:34:11.313Z,12.70
2023-04-10T23:36:37.718Z,12.67
2023-04-10T23:39:04.169Z,12.68
2023-04-10T23:41:30.645Z,12.65
2023-04-10T23:43:57.064Z,12.59
2023-04-10T23:46:23.494Z,12.64
2023-04-10T23:48:49.992Z,12.72
2023-04-10T23:51:16.389Z,12.56
2023-04-10T23:53:43.027Z,12.66
2023-04-10T23:56:09.764Z,12.65
2023-04-10T23:58:36.186Z,12.53
